createdAt,value
2019-04-02T00:00:07.607Z,1004.36
2019-04-02T00:01:07.623Z,1004.40
2019-04-02T00:02:07.626Z,1004.36
2019-04-02T00:03:09.065Z,1004.32
2019-04-02T00:04:28.592Z,1004.33
2019-04-02T00:05:07.585Z,1004.31
2019-04-02T00:06:07.588Z,1004.27
2019-04-02T00:07:07.621Z,1004.28
2019-04-02T00:08:07.573Z,1004.28
2019-04-02T00:09:07.581Z,1004.23
2019-04-02T00:10:28.566Z,1004.22
2019-04-02T00:11:07.546Z,1004.21
2019-04-02T00:12:07.558Z,1004.21
2019-04-02T00:13:07.534Z,1004.16
2019-04-02T00:14:07.536Z,1004.13
2019-04-02T00:15:07.516Z,1004.15
2019-04-02T00:16:28.533Z,1004.11
2019-04-02T00:17:07.495Z,1004.16
2019-04-02T00:18:08.358Z,1004.13
2019-04-02T00:19:07.497Z,1004.11
2019-04-02T00:20:07.500Z,1004.11
2019-04-02T00:21:07.487Z,1004.10
2019-04-02T00:22:29.381Z,1004.09
2019-04-02T00:23:07.458Z,1004.09
2019-04-02T00:24:07.491Z,1004.11
2019-04-02T00:25:07.480Z,1004.08
2019-04-02T00:26:07.473Z,1004.06
2019-04-02T00:27:07.485Z,1004.04
2019-04-02T00:28:28.458Z,1004.08
2019-04-02T00:29:07.563Z,1004.09
2019-04-02T00:30:07.529Z,1004.07
2019-04-02T00:31:07.538Z,1004.06
2019-04-02T00:32:07.551Z,1004.04
2019-04-02T00:33:09.186Z,1004.03
2019-04-02T00:34:28.387Z,1004.00
2019-04-02T00:35:07.542Z,1003.97
2019-04-02T00:36:07.448Z,1003.99
2019-04-02T00:37:08.454Z,1003.98
2019-04-02T00:38:07.431Z,1003.98
2019-04-02T00:39:07.436Z,1003.98
2019-04-02T00:40:28.336Z,1003.97
2019-04-02T00:41:07.332Z,1003.98
2019-04-02T00:42:07.342Z,1003.97
2019-04-02T00:43:07.344Z,1003.93
2019-04-02T00:44:07.296Z,1003.93
2019-04-02T00:45:07.290Z,1003.92
2019-04-02T00:46:28.331Z,1003.94
2019-04-02T00:47:07.285Z,1003.91
2019-04-02T00:48:07.266Z,1003.92
2019-04-02T00:49:07.277Z,1003.90
2019-04-02T00:50:07.263Z,1003.89
2019-04-02T00:51:08.239Z,1003.84
2019-04-02T00:52:28.258Z,1003.83
2019-04-02T00:53:07.248Z,1003.82
2019-04-02T00:54:07.230Z,1003.77
2019-04-02T00:55:07.213Z,1003.79
2019-04-02T00:56:07.215Z,1003.73
2019-04-02T00:57:07.266Z,1003.73
2019-04-02T00:58:28.205Z,1003.72
2019-04-02T00:59:07.181Z,1003.71
2019-04-02T01:00:07.182Z,1003.70
2019-04-02T01:01:07.171Z,1003.70
2019-04-02T01:02:07.181Z,1003.67
2019-04-02T01:03:07.154Z,1003.66
2019-04-02T01:04:28.126Z,1003.65
2019-04-02T01:05:08.220Z,1003.62
2019-04-02T01:06:07.121Z,1003.62
2019-04-02T01:07:07.118Z,1003.61
2019-04-02T01:08:07.112Z,1003.59
2019-04-02T01:09:07.111Z,1003.59
2019-04-02T01:10:28.109Z,1003.61
2019-04-02T01:11:07.086Z,1003.59
2019-04-02T01:12:07.086Z,1003.58
2019-04-02T01:13:07.090Z,1003.55
2019-04-02T01:14:07.058Z,1003.55
2019-04-02T01:15:07.062Z,1003.56
2019-04-02T01:16:28.056Z,1003.51
2019-04-02T01:17:07.041Z,1003.52
2019-04-02T01:18:07.053Z,1003.49
2019-04-02T01:19:08.093Z,1003.50
2019-04-02T01:20:08.077Z,1003.51
2019-04-02T01:21:07.024Z,1003.51
2019-04-02T01:22:28.015Z,1003.50
2019-04-02T01:23:07.022Z,1003.52
2019-04-02T01:24:07.003Z,1003.50
2019-04-02T01:25:06.979Z,1003.47
2019-04-02T01:26:07.023Z,1003.52
2019-04-02T01:27:06.966Z,1003.50
2019-04-02T01:28:27.973Z,1003.49
2019-04-02T01:29:06.940Z,1003.42
2019-04-02T01:30:06.953Z,1003.46
2019-04-02T01:31:06.941Z,1003.44
2019-04-02T01:32:06.948Z,1003.45
2019-04-02T01:33:06.935Z,1003.41
2019-04-02T01:34:27.925Z,1003.40
2019-04-02T01:35:07.693Z,1003.33
2019-04-02T01:36:06.898Z,1003.32
2019-04-02T01:37:06.894Z,1003.32
2019-04-02T01:38:06.881Z,1003.29
2019-04-02T01:39:06.871Z,1003.25
2019-04-02T01:40:28.321Z,1003.26
2019-04-02T01:41:06.852Z,1003.27
2019-04-02T01:42:06.836Z,1003.28
2019-04-02T01:43:06.850Z,1003.25
2019-04-02T01:44:06.832Z,1003.23
2019-04-02T01:45:06.828Z,1003.22
2019-04-02T01:46:27.807Z,1003.18
2019-04-02T01:47:06.814Z,1003.18
2019-04-02T01:48:06.803Z,1003.20
2019-04-02T01:49:06.792Z,1003.19
2019-04-02T01:50:08.149Z,1003.14
2019-04-02T01:51:06.792Z,1003.13
2019-04-02T01:52:27.791Z,1003.15
2019-04-02T01:53:06.778Z,1003.15
2019-04-02T01:54:06.752Z,1003.13
2019-04-02T01:55:06.751Z,1003.08
2019-04-02T01:56:07.529Z,1003.06
2019-04-02T01:57:06.742Z,1003.05
2019-04-02T01:58:27.737Z,1003.04
2019-04-02T01:59:06.726Z,1003.04
2019-04-02T02:00:06.699Z,1003.03
2019-04-02T02:01:06.697Z,1003.03
2019-04-02T02:02:06.690Z,1003.06
2019-04-02T02:03:06.705Z,1003.04
2019-04-02T02:04:27.678Z,1003.00
2019-04-02T02:05:06.673Z,1003.00
2019-04-02T02:06:06.676Z,1002.98
2019-04-02T02:07:06.659Z,1002.99
2019-04-02T02:08:08.091Z,1002.95
2019-04-02T02:09:06.658Z,1002.92
2019-04-02T02:10:27.637Z,1002.91
2019-04-02T02:11:06.638Z,1002.96
2019-04-02T02:12:06.627Z,1002.89
2019-04-02T02:13:06.605Z,1002.92
2019-04-02T02:14:06.590Z,1002.88
2019-04-02T02:15:06.598Z,1002.90
2019-04-02T02:16:27.590Z,1002.90
2019-04-02T02:17:06.565Z,1002.91
2019-04-02T02:18:06.577Z,1002.90
2019-04-02T02:19:06.559Z,1002.89
2019-04-02T02:20:06.534Z,1002.91
2019-04-02T02:21:06.550Z,1002.86
2019-04-02T02:22:27.543Z,1002.83
2019-04-02T02:23:06.535Z,1002.82
2019-04-02T02:24:06.517Z,1002.83
2019-04-02T02:25:08.422Z,1002.81
2019-04-02T02:26:07.215Z,1002.79
2019-04-02T02:27:06.472Z,1002.82
2019-04-02T02:28:27.492Z,1002.76
2019-04-02T02:29:06.475Z,1002.78
2019-04-02T02:30:06.466Z,1002.72
2019-04-02T02:31:06.800Z,1002.74
2019-04-02T02:32:06.577Z,1002.70
2019-04-02T02:33:06.916Z,1002.69
2019-04-02T02:34:27.451Z,1002.67
2019-04-02T02:35:09.006Z,1002.66
2019-04-02T02:36:06.398Z,1002.62
2019-04-02T02:37:06.405Z,1002.60
2019-04-02T02:38:06.399Z,1002.64
2019-04-02T02:39:06.387Z,1002.63
2019-04-02T02:40:27.394Z,1002.68
2019-04-02T02:41:06.386Z,1002.64
2019-04-02T02:42:06.391Z,1002.59
2019-04-02T02:43:06.358Z,1002.60
2019-04-02T02:44:06.354Z,1002.59
2019-04-02T02:45:06.440Z,1002.56
2019-04-02T02:46:27.346Z,1002.60
2019-04-02T02:47:06.347Z,1002.61
2019-04-02T02:48:06.324Z,1002.62
2019-04-02T02:49:06.325Z,1002.58
2019-04-02T02:50:06.319Z,1002.61
2019-04-02T02:51:06.295Z,1002.60
2019-04-02T02:52:27.306Z,1002.62
2019-04-02T02:53:06.262Z,1002.61
2019-04-02T02:54:06.291Z,1002.60
2019-04-02T02:55:06.280Z,1002.59
2019-04-02T02:56:06.265Z,1002.58
2019-04-02T02:57:06.251Z,1002.62
2019-04-02T02:58:27.256Z,1002.61
2019-04-02T02:59:06.242Z,1002.57
2019-04-02T03:00:06.210Z,1002.56
2019-04-02T03:01:06.223Z,1002.57
2019-04-02T03:02:06.205Z,1002.61
2019-04-02T03:03:06.210Z,1002.55
2019-04-02T03:04:27.210Z,1002.52
2019-04-02T03:05:06.176Z,1002.54
2019-04-02T03:06:06.179Z,1002.52
2019-04-02T03:07:06.175Z,1002.49
2019-04-02T03:08:06.206Z,1002.54
2019-04-02T03:09:06.166Z,1002.45
2019-04-02T03:10:27.178Z,1002.46
2019-04-02T03:11:06.128Z,1002.45
2019-04-02T03:12:06.754Z,1002.48
2019-04-02T03:13:07.406Z,1002.44
2019-04-02T03:14:07.563Z,1002.46
2019-04-02T03:15:06.122Z,1002.44
2019-04-02T03:16:27.098Z,1002.47
2019-04-02T03:17:06.141Z,1002.45
2019-04-02T03:18:06.114Z,1002.43
2019-04-02T03:19:06.088Z,1002.47
2019-04-02T03:20:06.062Z,1002.41
2019-04-02T03:21:06.070Z,1002.37
2019-04-02T03:22:27.035Z,1002.44
2019-04-02T03:23:06.052Z,1002.39
2019-04-02T03:24:06.038Z,1002.36
2019-04-02T03:25:06.027Z,1002.34
2019-04-02T03:26:06.030Z,1002.37
2019-04-02T03:27:06.052Z,1002.35
2019-04-02T03:28:27.020Z,1002.31
2019-04-02T03:29:05.997Z,1002.32
2019-04-02T03:30:05.980Z,1002.28
2019-04-02T03:31:05.967Z,1002.35
2019-04-02T03:32:08.982Z,1002.30
2019-04-02T03:33:05.978Z,1002.30
2019-04-02T03:34:27.144Z,1002.31
2019-04-02T03:35:05.940Z,1002.30
2019-04-02T03:36:05.938Z,1002.25
2019-04-02T03:37:06.206Z,1002.23
2019-04-02T03:38:06.391Z,1002.23
2019-04-02T03:39:07.182Z,1002.24
2019-04-02T03:40:26.910Z,1002.20
2019-04-02T03:41:05.891Z,1002.21
2019-04-02T03:42:05.891Z,1002.21
2019-04-02T03:43:05.870Z,1002.20
2019-04-02T03:44:05.870Z,1002.16
2019-04-02T03:45:05.873Z,1002.21
2019-04-02T03:46:26.849Z,1002.13
2019-04-02T03:47:05.851Z,1002.11
2019-04-02T03:48:05.884Z,1002.07
2019-04-02T03:49:05.825Z,1002.08
2019-04-02T03:50:05.835Z,1002.06
2019-04-02T03:51:05.818Z,1002.06
2019-04-02T03:52:26.824Z,1002.00
2019-04-02T03:53:05.795Z,1002.01
2019-04-02T03:54:05.852Z,1001.98
2019-04-02T03:55:05.780Z,1002.00
2019-04-02T03:56:05.761Z,1002.00
2019-04-02T03:57:05.764Z,1001.96
2019-04-02T03:58:26.759Z,1001.94
2019-04-02T03:59:05.793Z,1001.93
2019-04-02T04:00:05.730Z,1001.94
2019-04-02T04:01:05.725Z,1001.92
2019-04-02T04:02:05.731Z,1001.93
2019-04-02T04:03:05.715Z,1001.90
2019-04-02T04:04:26.739Z,1001.89
2019-04-02T04:05:05.694Z,1001.88
2019-04-02T04:06:05.688Z,1001.89
2019-04-02T04:07:05.720Z,1001.90
2019-04-02T04:08:05.703Z,1001.84
2019-04-02T04:09:05.657Z,1001.89
2019-04-02T04:10:26.658Z,1001.88
2019-04-02T04:11:05.646Z,1001.86
2019-04-02T04:12:05.651Z,1001.85
2019-04-02T04:13:05.633Z,1001.84
2019-04-02T04:14:05.624Z,1001.85
2019-04-02T04:15:05.621Z,1001.79
2019-04-02T04:16:26.654Z,1001.78
2019-04-02T04:17:05.588Z,1001.76
2019-04-02T04:18:05.637Z,1001.75
2019-04-02T04:19:05.635Z,1001.79
2019-04-02T04:20:05.625Z,1001.80
2019-04-02T04:21:05.558Z,1001.79
2019-04-02T04:22:26.570Z,1001.76
2019-04-02T04:23:09.117Z,1001.76
2019-04-02T04:24:05.554Z,1001.74
2019-04-02T04:25:05.570Z,1001.71
2019-04-02T04:26:05.527Z,1001.74
2019-04-02T04:27:05.513Z,1001.74
2019-04-02T04:28:26.577Z,1001.74
2019-04-02T04:29:06.197Z,1001.78
2019-04-02T04:30:07.980Z,1001.76
2019-04-02T04:31:08.202Z,1001.71
2019-04-02T04:32:05.484Z,1001.77
2019-04-02T04:33:05.456Z,1001.71
2019-04-02T04:34:26.463Z,1001.73
2019-04-02T04:35:05.441Z,1001.73
2019-04-02T04:36:05.445Z,1001.71
2019-04-02T04:37:05.427Z,1001.72
2019-04-02T04:38:05.419Z,1001.70
2019-04-02T04:39:05.455Z,1001.69
2019-04-02T04:40:26.414Z,1001.69
2019-04-02T04:41:05.415Z,1001.68
2019-04-02T04:42:05.388Z,1001.67
2019-04-02T04:43:05.384Z,1001.64
2019-04-02T04:44:05.361Z,1001.63
2019-04-02T04:45:05.368Z,1001.65
2019-04-02T04:46:26.360Z,1001.66
2019-04-02T04:47:05.333Z,1001.63
2019-04-02T04:48:05.341Z,1001.64
2019-04-02T04:49:05.336Z,1001.67
2019-04-02T04:50:05.306Z,1001.70
2019-04-02T04:51:05.289Z,1001.68
2019-04-02T04:52:26.753Z,1001.68
2019-04-02T04:53:05.283Z,1001.66
2019-04-02T04:54:06.475Z,1001.62
2019-04-02T04:55:05.283Z,1001.63
2019-04-02T04:56:05.270Z,1001.61
2019-04-02T04:57:05.316Z,1001.56
2019-04-02T04:58:26.242Z,1001.59
2019-04-02T04:59:05.249Z,1001.64
2019-04-02T05:00:05.210Z,1001.62
2019-04-02T05:01:05.214Z,1001.61
2019-04-02T05:02:05.225Z,1001.65
2019-04-02T05:03:05.199Z,1001.62
2019-04-02T05:04:26.196Z,1001.66
2019-04-02T05:05:05.191Z,1001.62
2019-04-02T05:06:05.177Z,1001.59
2019-04-02T05:07:05.160Z,1001.55
2019-04-02T05:08:05.153Z,1001.58
2019-04-02T05:09:05.143Z,1001.58
2019-04-02T05:10:26.141Z,1001.58
2019-04-02T05:11:05.113Z,1001.59
2019-04-02T05:12:05.127Z,1001.61
2019-04-02T05:13:05.110Z,1001.61
2019-04-02T05:14:05.118Z,1001.65
2019-04-02T05:15:05.096Z,1001.64
2019-04-02T05:16:26.090Z,1001.67
2019-04-02T05:17:05.106Z,1001.64
2019-04-02T05:18:05.080Z,1001.67
2019-04-02T05:19:05.066Z,1001.62
2019-04-02T05:20:05.049Z,1001.63
2019-04-02T05:21:05.062Z,1001.66
2019-04-02T05:22:26.045Z,1001.67
2019-04-02T05:23:05.026Z,1001.65
2019-04-02T05:24:05.084Z,1001.65
2019-04-02T05:25:06.766Z,1001.66
2019-04-02T05:26:05.003Z,1001.68
2019-04-02T05:27:04.992Z,1001.62
2019-04-02T05:28:25.998Z,1001.63
2019-04-02T05:29:05.483Z,1001.66
2019-04-02T05:30:05.236Z,1001.65
2019-04-02T05:31:04.958Z,1001.63
2019-04-02T05:32:04.954Z,1001.60
2019-04-02T05:33:04.956Z,1001.64
2019-04-02T05:34:27.092Z,1001.63
2019-04-02T05:35:04.951Z,1001.64
2019-04-02T05:36:04.929Z,1001.64
2019-04-02T05:37:04.916Z,1001.60
2019-04-02T05:38:04.902Z,1001.65
2019-04-02T05:39:04.927Z,1001.62
2019-04-02T05:40:25.887Z,1001.64
2019-04-02T05:41:04.898Z,1001.65
2019-04-02T05:42:04.874Z,1001.67
2019-04-02T05:43:04.852Z,1001.66
2019-04-02T05:44:04.855Z,1001.68
2019-04-02T05:45:04.841Z,1001.64
2019-04-02T05:46:25.949Z,1001.63
2019-04-02T05:47:04.822Z,1001.64
2019-04-02T05:48:04.809Z,1001.65
2019-04-02T05:49:04.807Z,1001.61
2019-04-02T05:50:04.811Z,1001.61
2019-04-02T05:51:04.796Z,1001.61
2019-04-02T05:52:25.782Z,1001.64
2019-04-02T05:53:04.768Z,1001.61
2019-04-02T05:54:04.773Z,1001.59
2019-04-02T05:55:04.753Z,1001.58
2019-04-02T05:56:04.753Z,1001.58
2019-04-02T05:57:04.754Z,1001.61
2019-04-02T05:58:25.742Z,1001.56
2019-04-02T05:59:04.726Z,1001.57
2019-04-02T06:00:04.760Z,1001.58
2019-04-02T06:01:04.735Z,1001.52
2019-04-02T06:02:04.702Z,1001.54
2019-04-02T06:03:04.700Z,1001.54
2019-04-02T06:04:25.683Z,1001.54
2019-04-02T06:05:04.687Z,1001.56
2019-04-02T06:06:04.678Z,1001.54
2019-04-02T06:07:06.324Z,1001.52
2019-04-02T06:08:05.097Z,1001.52
2019-04-02T06:09:04.636Z,1001.47
2019-04-02T06:10:25.642Z,1001.47
2019-04-02T06:11:04.632Z,1001.46
2019-04-02T06:12:04.633Z,1001.45
2019-04-02T06:13:04.613Z,1001.44
2019-04-02T06:14:04.585Z,1001.39
2019-04-02T06:15:04.588Z,1001.38
2019-04-02T06:16:25.590Z,1001.38
2019-04-02T06:17:04.571Z,1001.37
2019-04-02T06:18:04.570Z,1001.39
2019-04-02T06:19:04.554Z,1001.42
2019-04-02T06:20:04.545Z,1001.35
2019-04-02T06:21:04.531Z,1001.42
2019-04-02T06:22:25.537Z,1001.41
2019-04-02T06:23:04.518Z,1001.38
2019-04-02T06:24:04.515Z,1001.36
2019-04-02T06:25:04.509Z,1001.38
2019-04-02T06:26:04.505Z,1001.36
2019-04-02T06:27:04.490Z,1001.38
2019-04-02T06:28:25.491Z,1001.36
2019-04-02T06:29:04.483Z,1001.36
2019-04-02T06:30:04.450Z,1001.34
2019-04-02T06:31:04.450Z,1001.34
2019-04-02T06:32:04.458Z,1001.32
2019-04-02T06:33:04.439Z,1001.32
2019-04-02T06:34:25.436Z,1001.33
2019-04-02T06:35:04.429Z,1001.30
2019-04-02T06:36:04.418Z,1001.31
2019-04-02T06:37:04.425Z,1001.29
2019-04-02T06:38:04.624Z,1001.26
2019-04-02T06:39:04.394Z,1001.24
2019-04-02T06:40:25.390Z,1001.25
2019-04-02T06:41:04.382Z,1001.22
2019-04-02T06:42:04.391Z,1001.25
2019-04-02T06:43:04.622Z,1001.25
2019-04-02T06:44:04.546Z,1001.25
2019-04-02T06:45:04.444Z,1001.25
2019-04-02T06:46:25.337Z,1001.27
2019-04-02T06:47:04.485Z,1001.25
2019-04-02T06:48:04.552Z,1001.25
2019-04-02T06:49:04.304Z,1001.22
2019-04-02T06:50:04.295Z,1001.19
2019-04-02T06:51:04.284Z,1001.18
2019-04-02T06:52:26.641Z,1001.22
2019-04-02T06:53:04.274Z,1001.14
2019-04-02T06:54:04.292Z,1001.17
2019-04-02T06:55:04.279Z,1001.17
2019-04-02T06:56:04.243Z,1001.18
2019-04-02T06:57:04.257Z,1001.14
2019-04-02T06:58:25.233Z,1001.18
2019-04-02T06:59:04.935Z,1001.13
2019-04-02T07:00:04.232Z,1001.11
2019-04-02T07:01:20.631Z,1001.12
2019-04-02T07:02:04.208Z,1001.06
2019-04-02T07:03:04.203Z,1001.07
2019-04-02T07:04:37.334Z,1001.10
2019-04-02T07:05:04.186Z,1001.08
2019-04-02T07:06:04.163Z,1001.10
2019-04-02T07:07:04.172Z,1001.10
2019-04-02T07:08:04.156Z,1001.12
2019-04-02T07:09:04.144Z,1001.08
2019-04-02T07:10:25.149Z,1001.14
2019-04-02T07:11:04.122Z,1001.12
2019-04-02T07:12:04.107Z,1001.14
2019-04-02T07:13:04.110Z,1001.11
2019-04-02T07:19:00.801Z,1001.14
2019-04-02T07:20:03.635Z,1001.10
2019-04-02T07:22:06.067Z,1001.14
2019-04-02T07:23:04.724Z,1001.10
2019-04-02T07:25:08.890Z,1001.11
2019-04-02T07:26:08.694Z,1001.06
2019-04-02T07:28:12.925Z,1001.05
2019-04-02T07:29:12.629Z,1001.03
2019-04-02T07:31:18.298Z,1000.99
2019-04-02T07:32:16.578Z,1000.98
2019-04-02T07:34:20.534Z,1000.96
2019-04-02T07:35:20.517Z,1000.97
2019-04-02T07:37:24.937Z,1000.96
2019-04-02T07:38:24.458Z,1000.94
2019-04-02T07:40:28.445Z,1000.98
2019-04-02T07:41:28.410Z,1000.99
2019-04-02T07:43:21.350Z,1000.95
2019-04-02T07:44:21.326Z,1000.97
2019-04-02T07:46:15.149Z,1000.92
2019-04-02T07:47:14.813Z,1000.93
2019-04-02T07:49:18.707Z,1000.80
2019-04-02T07:50:19.004Z,1000.80
2019-04-02T07:52:24.913Z,1000.74
2019-04-02T07:53:23.026Z,1000.71
2019-04-02T07:55:27.002Z,1000.69
2019-04-02T07:56:26.979Z,1000.70
2019-04-02T07:58:20.378Z,1000.77
2019-04-02T07:59:20.072Z,1000.83
2019-04-02T08:01:25.052Z,1000.85
2019-04-02T08:02:24.039Z,1000.81
2019-04-02T08:04:16.932Z,1000.71
2019-04-02T08:05:16.922Z,1000.66
2019-04-02T08:07:20.878Z,1000.68
2019-04-02T08:08:20.863Z,1000.68
2019-04-02T08:10:24.834Z,1000.71
2019-04-02T08:11:24.805Z,1000.70
2019-04-02T08:13:17.682Z,1000.64
2019-04-02T08:14:17.673Z,1000.64
2019-04-02T08:16:21.646Z,1000.53
2019-04-02T08:17:21.624Z,1000.49
2019-04-02T08:19:25.568Z,1000.41
2019-04-02T08:20:25.628Z,1000.36
2019-04-02T08:22:29.522Z,1000.30
2019-04-02T08:23:29.508Z,1000.31
2019-04-02T08:25:33.463Z,1000.23
2019-04-02T08:26:36.231Z,1000.20
2019-04-02T08:28:26.337Z,1000.13
2019-04-02T08:29:26.327Z,1000.14
2019-04-02T08:31:31.151Z,1000.15
2019-04-02T08:32:30.106Z,1000.13
2019-04-02T08:34:34.056Z,1000.07
2019-04-02T08:35:34.045Z,1000.01
2019-04-02T08:37:38.180Z,999.93
2019-04-02T08:38:39.403Z,999.94
2019-04-02T08:40:41.963Z,1000.00
2019-04-02T08:41:41.936Z,1000.07
2019-04-02T08:43:45.896Z,1000.13
2019-04-02T08:44:45.883Z,1000.18
2019-04-02T08:46:49.845Z,1000.17
2019-04-02T08:47:49.832Z,1000.17
2019-04-02T08:49:55.194Z,1000.14
2019-04-02T08:50:53.780Z,1000.18
2019-04-02T08:52:46.661Z,1000.17
2019-04-02T08:53:46.645Z,1000.22
2019-04-02T08:55:50.615Z,1000.19
2019-04-02T08:56:56.254Z,1000.19
2019-04-02T08:58:54.555Z,1000.15
2019-04-02T08:59:55.782Z,1000.11
2019-04-02T09:01:58.542Z,1000.09
2019-04-02T09:02:58.494Z,1000.04
2019-04-02T09:05:02.439Z,1000.05
2019-04-02T09:06:02.432Z,1000.07
2019-04-02T09:08:06.390Z,1000.06
2019-04-02T09:09:06.381Z,1000.02
2019-04-02T09:11:10.344Z,999.99
2019-04-02T09:12:10.324Z,999.98
2019-04-02T09:14:15.159Z,999.95
2019-04-02T09:15:14.271Z,999.94
2019-04-02T09:17:18.226Z,999.93
2019-04-02T09:18:18.217Z,999.95
2019-04-02T09:20:22.172Z,999.95
2019-04-02T09:21:22.156Z,999.92
2019-04-02T09:23:15.041Z,999.91
2019-04-02T09:24:15.089Z,999.89
2019-04-02T09:26:19.031Z,999.85
2019-04-02T09:27:18.973Z,999.80
2019-04-02T09:29:22.959Z,999.85
2019-04-02T09:30:22.925Z,999.81
2019-04-02T09:32:36.084Z,999.87
2019-04-02T09:33:26.893Z,999.81
2019-04-02T09:35:19.784Z,999.83
2019-04-02T09:36:19.773Z,999.86
2019-04-02T09:38:23.741Z,999.80
2019-04-02T09:39:23.724Z,999.78
2019-04-02T09:41:27.677Z,999.83
2019-04-02T09:42:27.672Z,999.79
2019-04-02T09:44:31.634Z,999.77
2019-04-02T09:45:31.626Z,999.81
2019-04-02T09:47:36.153Z,999.76
2019-04-02T09:48:35.902Z,999.79
2019-04-02T09:50:39.532Z,999.76
2019-04-02T09:51:39.523Z,999.73
2019-04-02T09:53:43.485Z,999.69
2019-04-02T09:54:43.470Z,999.66
2019-04-02T09:56:47.432Z,999.61
2019-04-02T09:57:47.470Z,999.62
2019-04-02T09:58:47.419Z,999.58
2019-04-02T09:59:47.974Z,999.57
2019-04-02T10:00:47.410Z,999.44
2019-04-02T10:01:47.402Z,999.48
2019-04-02T10:02:47.398Z,999.46
2019-04-02T10:03:47.394Z,999.39
2019-04-02T10:04:47.393Z,999.39
2019-04-02T10:05:47.383Z,999.36
2019-04-02T10:06:47.376Z,999.37
2019-04-02T10:07:47.375Z,999.33
2019-04-02T10:08:47.370Z,999.33
2019-04-02T10:09:47.363Z,999.32
2019-04-02T10:10:47.361Z,999.26
2019-04-02T10:11:47.401Z,999.21
2019-04-02T10:12:47.347Z,999.14
2019-04-02T10:13:47.347Z,999.16
2019-04-02T10:14:47.346Z,999.10
2019-04-02T10:15:47.335Z,999.11
2019-04-02T10:16:47.338Z,999.05
2019-04-02T10:17:48.217Z,999.06
2019-04-02T10:18:47.328Z,999.02
2019-04-02T10:19:47.320Z,999.03
2019-04-02T10:20:47.313Z,999.02
2019-04-02T10:21:47.311Z,998.99
2019-04-02T10:22:47.318Z,998.97
2019-04-02T10:23:47.305Z,998.91
2019-04-02T10:24:47.301Z,998.88
2019-04-02T10:25:47.301Z,998.88
2019-04-02T10:26:47.292Z,998.88
2019-04-02T10:27:47.293Z,998.89
2019-04-02T10:28:48.917Z,998.88
2019-04-02T10:29:47.277Z,998.85
2019-04-02T10:30:47.279Z,998.85
2019-04-02T10:31:47.272Z,998.86
2019-04-02T10:32:47.268Z,998.86
2019-04-02T10:33:47.715Z,998.80
2019-04-02T10:34:47.271Z,998.79
2019-04-02T10:35:47.263Z,998.77
2019-04-02T10:36:56.251Z,998.76
2019-04-02T10:37:47.248Z,998.75
2019-04-02T10:38:47.245Z,998.77
2019-04-02T10:39:47.241Z,998.76
2019-04-02T10:40:47.234Z,998.75
2019-04-02T10:41:47.233Z,998.71
2019-04-02T10:42:48.793Z,998.74
2019-04-02T10:43:47.226Z,998.74
2019-04-02T10:44:47.234Z,998.75
2019-04-02T10:45:47.219Z,998.74
2019-04-02T10:46:47.216Z,998.71
2019-04-02T10:47:48.521Z,998.75
2019-04-02T10:48:47.209Z,998.79
2019-04-02T10:49:47.207Z,998.84
2019-04-02T10:50:47.202Z,998.85
2019-04-02T10:51:47.197Z,998.88
2019-04-02T10:52:47.198Z,998.87
2019-04-02T10:53:47.192Z,998.79
2019-04-02T10:54:47.192Z,998.73
2019-04-02T10:55:47.183Z,998.79
2019-04-02T10:56:47.181Z,998.77
2019-04-02T10:57:47.176Z,998.73
2019-04-02T10:58:47.174Z,998.73
2019-04-02T10:59:47.170Z,998.76
2019-04-02T11:00:47.164Z,998.72
2019-04-02T11:01:47.163Z,998.73
2019-04-02T11:02:47.158Z,998.68
2019-04-02T11:03:47.155Z,998.64
2019-04-02T11:04:47.151Z,998.63
2019-04-02T11:05:47.146Z,998.57
2019-04-02T11:06:47.145Z,998.50
2019-04-02T11:07:47.144Z,998.47
2019-04-02T11:08:47.139Z,998.47
2019-04-02T11:09:48.079Z,998.44
2019-04-02T11:10:47.990Z,998.44
2019-04-02T11:11:48.273Z,998.46
2019-04-02T11:12:48.922Z,998.42
2019-04-02T11:13:47.122Z,998.43
2019-04-02T11:14:47.121Z,998.40
2019-04-02T11:15:47.114Z,998.40
2019-04-02T11:16:47.111Z,998.40
2019-04-02T11:17:47.112Z,998.40
2019-04-02T11:18:47.109Z,998.37
2019-04-02T11:19:47.102Z,998.35
2019-04-02T11:20:47.097Z,998.37
2019-04-02T11:21:47.751Z,998.40
2019-04-02T11:22:47.100Z,998.37
2019-04-02T11:23:47.093Z,998.33
2019-04-02T11:24:47.103Z,998.31
2019-04-02T11:25:47.092Z,998.36
2019-04-02T11:26:47.081Z,998.38
2019-04-02T11:27:47.085Z,998.41
2019-04-02T11:28:47.082Z,998.37
2019-04-02T11:29:47.078Z,998.30
2019-04-02T11:30:47.076Z,998.31
2019-04-02T11:31:47.076Z,998.23
2019-04-02T11:32:47.068Z,998.23
2019-04-02T11:33:47.070Z,998.19
2019-04-02T11:34:47.067Z,998.17
2019-04-02T11:35:47.064Z,998.13
2019-04-02T11:36:47.065Z,998.10
2019-04-02T11:37:47.063Z,998.05
2019-04-02T11:38:47.059Z,997.96
2019-04-02T11:39:47.054Z,997.93
2019-04-02T11:40:47.057Z,997.91
2019-04-02T11:41:47.054Z,997.86
2019-04-02T11:42:47.053Z,997.83
2019-04-02T11:43:48.003Z,997.79
2019-04-02T11:44:47.091Z,997.81
2019-04-02T11:45:47.046Z,997.75
2019-04-02T11:46:47.043Z,997.77
2019-04-02T11:47:47.046Z,997.79
2019-04-02T11:48:47.044Z,997.80
2019-04-02T11:49:47.042Z,997.73
2019-04-02T11:50:47.040Z,997.77
2019-04-02T11:51:47.036Z,997.78
2019-04-02T11:52:47.034Z,997.78
2019-04-02T11:53:47.034Z,997.71
2019-04-02T11:54:47.037Z,997.75
2019-04-02T11:55:47.032Z,997.72
2019-04-02T11:56:49.628Z,997.66
2019-04-02T11:57:47.030Z,997.71
2019-04-02T11:58:47.028Z,997.70
2019-04-02T11:59:47.026Z,997.69
2019-04-02T12:00:47.025Z,997.67
2019-04-02T12:01:47.022Z,997.64
2019-04-02T12:02:47.025Z,997.63
2019-04-02T12:03:47.022Z,997.58
2019-04-02T12:04:47.022Z,997.56
2019-04-02T12:05:47.018Z,997.54
2019-04-02T12:57:26.757Z,996.93
2019-04-02T12:58:24.441Z,996.92
2019-04-02T13:00:28.532Z,996.89
2019-04-02T13:01:28.397Z,996.85
2019-04-02T13:03:21.309Z,996.86
2019-04-02T13:04:21.288Z,996.83
2019-04-02T13:06:25.258Z,996.85
2019-04-02T13:07:25.258Z,996.79
2019-04-02T13:09:29.233Z,996.84
2019-04-02T13:10:29.223Z,996.73
2019-04-02T13:12:33.215Z,996.67
2019-04-02T13:13:33.191Z,996.70
2019-04-02T13:15:37.168Z,996.71
2019-04-02T13:16:49.189Z,996.66
2019-04-02T13:18:43.248Z,996.57
2019-04-02T13:19:41.131Z,996.57
2019-04-02T13:21:45.104Z,996.57
2019-04-02T13:22:45.099Z,996.57
2019-04-02T13:24:38.195Z,996.42
2019-04-02T13:25:38.181Z,996.38
2019-04-02T13:27:42.156Z,996.38
2019-04-02T13:28:42.154Z,996.32
2019-04-02T13:30:46.128Z,996.27
2019-04-02T13:31:46.116Z,996.22
2019-04-02T13:33:50.090Z,996.23
2019-04-02T13:34:50.087Z,996.19
2019-04-02T13:36:44.437Z,996.15
2019-04-02T13:37:43.000Z,996.13
2019-04-02T13:39:46.799Z,996.13
2019-04-02T13:40:46.784Z,996.15
2019-04-02T13:42:40.171Z,996.11
2019-04-02T13:43:40.198Z,996.10
2019-04-02T13:44:40.167Z,996.21
2019-04-02T13:45:40.164Z,996.15
2019-04-02T13:46:40.171Z,996.04
2019-04-02T13:47:40.169Z,995.96
2019-04-02T13:48:40.161Z,996.00
2019-04-02T13:49:41.469Z,995.97
2019-04-02T13:50:40.163Z,995.98
2019-04-02T13:51:40.168Z,996.00
2019-04-02T13:52:40.166Z,995.98
2019-04-02T13:53:40.165Z,995.97
2019-04-02T13:54:40.163Z,996.02
2019-04-02T13:55:40.162Z,996.05
2019-04-02T13:56:40.175Z,995.99
2019-04-02T13:57:40.177Z,995.89
2019-04-02T13:58:40.168Z,996.01
2019-04-02T13:59:40.167Z,995.92
2019-04-02T14:00:40.161Z,995.88
2019-04-02T14:01:40.162Z,995.83
2019-04-02T14:02:40.163Z,995.82
2019-04-02T14:03:40.168Z,995.84
2019-04-02T14:04:40.167Z,995.85
2019-04-02T14:05:40.162Z,995.79
2019-04-02T14:06:40.165Z,995.80
2019-04-02T14:07:40.160Z,995.79
2019-04-02T14:08:40.163Z,995.89
2019-04-02T14:09:40.167Z,995.88
2019-04-02T14:10:40.161Z,995.85
2019-04-02T14:11:40.170Z,995.83
2019-04-02T14:12:40.165Z,995.99
2019-04-02T14:13:40.168Z,995.95
2019-04-02T14:14:40.161Z,996.00
2019-04-02T14:15:40.215Z,995.96
2019-04-02T14:16:40.164Z,995.88